sensor_id;sensor_type;location;lat;lon;timestamp;pressure;altitude;pressure_sealevel;temperature;humidity
46718;BME280;32448;44.960;-0.698;2023-03-04T00:00:32;102203.31;;;0.18;100.00
46718;BME280;32448;44.960;-0.698;2023-03-04T00:02:59;102192.50;;;0.12;100.00
46718;BME280;32448;44.960;-0.698;2023-03-04T00:05:27;102196.38;;;0.17;100.00
46718;BME280;32448;44.960;-0.698;2023-03-04T00:07:54;102204.81;;;0.26;100.00
46718;BME280;32448;44.960;-0.698;2023-03-04T00:10:22;102205.47;;;0.23;100.00
46718;BME280;32448;44.960;-0.698;2023-03-04T00:12:49;102163.88;;;0.07;100.00
46718;BME280;32448;44.960;-0.698;2023-03-04T00:15:18;102200.19;;;0.32;100.00
46718;BME280;32448;44.960;-0.698;2023-03-04T00:17:45;102198.50;;;0.32;100.00
46718;BME280;32448;44.960;-0.698;2023-03-04T00:20:13;102210.06;;;0.38;100.00
46718;BME280;32448;44.960;-0.698;2023-03-04T00:22:40;102195.44;;;0.26;100.00
46718;BME280;32448;44.960;-0.698;2023-03-04T00:25:07;102180.53;;;0.22;100.00
46718;BME280;32448;44.960;-0.698;2023-03-04T00:27:34;102202.13;;;0.24;100.00
46718;BME280;32448;44.960;-0.698;2023-03-04T00:30:03;102177.88;;;0.11;100.00
46718;BME280;32448;44.960;-0.698;2023-03-04T00:32:30;102185.94;;;0.15;100.00
46718;BME280;32448;44.960;-0.698;2023-03-04T00:34:58;102189.69;;;0.19;100.00
46718;BME280;32448;44.960;-0.698;2023-03-04T00:37:26;102198.91;;;0.27;100.00
46718;BME280;32448;44.960;-0.698;2023-03-04T00:39:54;102198.66;;;0.24;100.00
46718;BME280;32448;44.960;-0.698;2023-03-04T00:42:24;102206.22;;;0.22;100.00
46718;BME280;32448;44.960;-0.698;2023-03-04T00:44:52;102192.63;;;0.13;100.00
46718;BME280;32448;44.960;-0.698;2023-03-04T00:47:19;102179.31;;;0.07;100.00
46718;BME280;32448;44.960;-0.698;2023-03-04T00:49:47;102188.16;;;0.11;100.00
46718;BME280;32448;44.960;-0.698;2023-03-04T00:52:14;102189.16;;;0.13;100.00
46718;BME280;32448;44.960;-0.698;2023-03-04T00:54:41;102191.25;;;0.07;100.00
46718;BME280;32448;44.960;-0.698;2023-03-04T00:57:08;102196.91;;;0.03;100.00
46718;BME280;32448;44.960;-0.698;2023-03-04T00:59:36;102197.56;;;0.00;100.00
46718;BME280;32448;44.960;-0.698;2023-03-04T01:02:03;102184.22;;;-0.06;100.00
46718;BME280;32448;44.960;-0.698;2023-03-04T01:04:30;102194.75;;;-0.03;100.00
46718;BME280;32448;44.960;-0.698;2023-03-04T01:06:59;102196.16;;;-0.07;100.00
46718;BME280;32448;44.960;-0.698;2023-03-04T01:09:27;102191.00;;;-0.07;100.00
46718;BME280;32448;44.960;-0.698;2023-03-04T01:11:54;102180.88;;;-0.15;100.00
46718;BME280;32448;44.960;-0.698;2023-03-04T01:14:22;102163.81;;;-0.25;100.00
46718;BME280;32448;44.960;-0.698;2023-03-04T01:16:49;102162.19;;;-0.34;100.00
46718;BME280;32448;44.960;-0.698;2023-03-04T01:19:17;102174.47;;;-0.30;100.00
46718;BME280;32448;44.960;-0.698;2023-03-04T01:21:45;102187.72;;;-0.26;100.00
46718;BME280;32448;44.960;-0.698;2023-03-04T01:24:14;102186.69;;;-0.28;100.00
46718;BME280;32448;44.960;-0.698;2023-03-04T01:26:41;102186.94;;;-0.25;100.00
46718;BME280;32448;44.960;-0.698;2023-03-04T01:29:08;102192.09;;;-0.25;100.00
46718;BME280;32448;44.960;-0.698;2023-03-04T01:31:35;102185.78;;;-0.28;100.00
46718;BME280;32448;44.960;-0.698;2023-03-04T01:34:02;102169.34;;;-0.30;100.00
46718;BME280;32448;44.960;-0.698;2023-03-04T01:36:30;102186.06;;;-0.25;100.00
46718;BME280;32448;44.960;-0.698;2023-03-04T01:38:57;102189.75;;;-0.22;100.00
46718;BME280;32448;44.960;-0.698;2023-03-04T01:41:25;102179.25;;;-0.35;100.00
46718;BME280;32448;44.960;-0.698;2023-03-04T01:43:55;102159.50;;;-0.46;100.00
46718;BME280;32448;44.960;-0.698;2023-03-04T01:46:23;102181.81;;;-0.35;100.00
46718;BME280;32448;44.960;-0.698;2023-03-04T01:48:50;102182.19;;;-0.41;100.00
46718;BME280;32448;44.960;-0.698;2023-03-04T01:51:19;102174.00;;;-0.47;100.00
46718;BME280;32448;44.960;-0.698;2023-03-04T01:53:49;102155.50;;;-0.53;100.00
46718;BME280;32448;44.960;-0.698;2023-03-04T01:56:33;102164.22;;;-0.51;100.00
46718;BME280;32448;44.960;-0.698;2023-03-04T02:01:54;102157.56;;;-0.49;100.00
46718;BME280;32448;44.960;-0.698;2023-03-04T02:04:27;102158.72;;;-0.55;100.00
46718;BME280;32448;44.960;-0.698;2023-03-04T02:06:55;102173.59;;;-0.51;100.00
46718;BME280;32448;44.960;-0.698;2023-03-04T02:09:24;102146.91;;;-0.63;100.00
46718;BME280;32448;44.960;-0.698;2023-03-04T02:11:53;102165.75;;;-0.53;100.00
46718;BME280;32448;44.960;-0.698;2023-03-04T02:14:20;102166.03;;;-0.50;100.00
46718;BME280;32448;44.960;-0.698;2023-03-04T02:16:48;102139.34;;;-0.62;100.00
46718;BME280;32448;44.960;-0.698;2023-03-04T02:22:35;102137.28;;;-0.76;100.00
46718;BME280;32448;44.960;-0.698;2023-03-04T02:25:16;102098.78;;;-0.96;100.00
46718;BME280;32448;44.960;-0.698;2023-03-04T02:27:44;102164.38;;;-0.59;100.00
46718;BME280;32448;44.960;-0.698;2023-03-04T02:30:12;102126.09;;;-0.77;100.00
46718;BME280;32448;44.960;-0.698;2023-03-04T02:32:40;102157.44;;;-0.60;100.00
46718;BME280;32448;44.960;-0.698;2023-03-04T02:35:15;102146.00;;;-0.64;100.00
46718;BME280;32448;44.960;-0.698;2023-03-04T02:37:44;102104.69;;;-0.87;100.00
46718;BME280;32448;44.960;-0.698;2023-03-04T02:40:15;102108.16;;;-0.87;100.00
46718;BME280;32448;44.960;-0.698;2023-03-04T02:42:45;102127.28;;;-0.73;100.00
46718;BME280;32448;44.960;-0.698;2023-03-04T02:48:07;102101.34;;;-0.86;100.00
46718;BME280;32448;44.960;-0.698;2023-03-04T02:50:38;102102.50;;;-0.83;100.00
46718;BME280;32448;44.960;-0.698;2023-03-04T02:53:06;102099.69;;;-0.86;100.00
46718;BME280;32448;44.960;-0.698;2023-03-04T02:55:34;102112.38;;;-0.77;100.00
46718;BME280;32448;44.960;-0.698;2023-03-04T02:58:02;102127.69;;;-0.79;100.00
46718;BME280;32448;44.960;-0.698;2023-03-04T03:00:29;102126.00;;;-0.78;100.00
46718;BME280;32448;44.960;-0.698;2023-03-04T03:02:56;102113.69;;;-0.82;100.00
46718;BME280;32448;44.960;-0.698;2023-03-04T03:05:26;102132.91;;;-0.77;100.00
46718;BME280;32448;44.960;-0.698;2023-03-04T03:07:55;102093.91;;;-0.93;100.00
46718;BME280;32448;44.960;-0.698;2023-03-04T03:10:23;102110.84;;;-0.95;100.00
46718;BME280;32448;44.960;-0.698;2023-03-04T03:12:51;102130.75;;;-0.83;100.00
46718;BME280;32448;44.960;-0.698;2023-03-04T03:15:19;102116.09;;;-0.84;100.00
46718;BME280;32448;44.960;-0.698;2023-03-04T03:17:47;102113.16;;;-0.88;100.00
46718;BME280;32448;44.960;-0.698;2023-03-04T03:20:15;102093.00;;;-1.04;100.00
46718;BME280;32448;44.960;-0.698;2023-03-04T03:22:43;102121.38;;;-0.92;100.00
46718;BME280;32448;44.960;-0.698;2023-03-04T03:25:12;102106.59;;;-1.05;100.00
46718;BME280;32448;44.960;-0.698;2023-03-04T03:27:40;102102.50;;;-1.03;100.00
46718;BME280;32448;44.960;-0.698;2023-03-04T03:30:10;102111.09;;;-1.02;100.00
46718;BME280;32448;44.960;-0.698;2023-03-04T03:32:38;102113.66;;;-1.13;100.00
46718;BME280;32448;44.960;-0.698;2023-03-04T03:35:06;102097.72;;;-1.29;100.00
46718;BME280;32448;44.960;-0.698;2023-03-04T03:37:33;102107.22;;;-1.18;100.00
46718;BME280;32448;44.960;-0.698;2023-03-04T03:40:01;102077.47;;;-1.36;100.00
46718;BME280;32448;44.960;-0.698;2023-03-04T03:42:28;102108.13;;;-1.17;100.00
46718;BME280;32448;44.960;-0.698;2023-03-04T03:44:55;102118.53;;;-1.16;100.00
46718;BME280;32448;44.960;-0.698;2023-03-04T03:47:23;102127.41;;;-1.12;100.00
46718;BME280;32448;44.960;-0.698;2023-03-04T03:49:51;102119.84;;;-1.00;100.00
46718;BME280;32448;44.960;-0.698;2023-03-04T03:52:18;102070.16;;;-1.31;100.00
46718;BME280;32448;44.960;-0.698;2023-03-04T03:54:45;102126.72;;;-1.10;100.00
46718;BME280;32448;44.960;-0.698;2023-03-04T03:57:12;102108.41;;;-1.14;100.00
46718;BME280;32448;44.960;-0.698;2023-03-04T03:59:43;102109.03;;;-1.17;100.00
46718;BME280;32448;44.960;-0.698;2023-03-04T04:02:13;102082.59;;;-1.36;100.00
46718;BME280;32448;44.960;-0.698;2023-03-04T04:04:40;102114.03;;;-1.28;100.00
46718;BME280;32448;44.960;-0.698;2023-03-04T04:07:08;102131.09;;;-1.19;100.00
46718;BME280;32448;44.960;-0.698;2023-03-04T04:09:35;102131.09;;;-1.19;100.00
46718;BME280;32448;44.960;-0.698;2023-03-04T04:12:06;102141.75;;;-1.24;100.00
46718;BME280;32448;44.960;-0.698;2023-03-04T04:14:34;102131.84;;;-1.30;100.00
46718;BME280;32448;44.960;-0.698;2023-03-04T04:17:01;102141.19;;;-1.30;100.00
46718;BME280;32448;44.960;-0.698;2023-03-04T04:19:28;102143.38;;;-1.35;100.00
46718;BME280;32448;44.960;-0.698;2023-03-04T04:21:55;102136.72;;;-1.33;100.00
46718;BME280;32448;44.960;-0.698;2023-03-04T04:24:22;102142.97;;;-1.39;100.00
46718;BME280;32448;44.960;-0.698;2023-03-04T04:26:50;102147.19;;;-1.40;100.00
46718;BME280;32448;44.960;-0.698;2023-03-04T04:29:18;102099.59;;;-1.67;100.00
46718;BME280;32448;44.960;-0.698;2023-03-04T04:31:46;102141.41;;;-1.48;100.00
46718;BME280;32448;44.960;-0.698;2023-03-04T04:34:13;102136.16;;;-1.49;100.00
46718;BME280;32448;44.960;-0.698;2023-03-04T04:36:41;102128.81;;;-1.55;100.00
46718;BME280;32448;44.960;-0.698;2023-03-04T04:39:08;102134.22;;;-1.52;100.00
46718;BME280;32448;44.960;-0.698;2023-03-04T04:41:38;102136.28;;;-1.48;100.00
46718;BME280;32448;44.960;-0.698;2023-03-04T04:44:06;102122.53;;;-1.58;100.00
46718;BME280;32448;44.960;-0.698;2023-03-04T04:46:33;102109.31;;;-1.63;100.00
46718;BME280;32448;44.960;-0.698;2023-03-04T04:49:01;102132.56;;;-1.51;100.00
46718;BME280;32448;44.960;-0.698;2023-03-04T04:51:28;102135.41;;;-1.48;100.00
46718;BME280;32448;44.960;-0.698;2023-03-04T04:53:57;102139.34;;;-1.52;100.00
46718;BME280;32448;44.960;-0.698;2023-03-04T04:56:25;102139.47;;;-1.50;100.00
46718;BME280;32448;44.960;-0.698;2023-03-04T04:58:57;102132.41;;;-1.53;100.00
46718;BME280;32448;44.960;-0.698;2023-03-04T05:01:25;102142.66;;;-1.53;100.00
46718;BME280;32448;44.960;-0.698;2023-03-04T05:03:52;102144.59;;;-1.50;100.00
46718;BME280;32448;44.960;-0.698;2023-03-04T05:06:22;102140.53;;;-1.48;100.00
46718;BME280;32448;44.960;-0.698;2023-03-04T05:08:50;102094.28;;;-1.78;100.00
46718;BME280;32448;44.960;-0.698;2023-03-04T05:11:18;102141.16;;;-1.51;100.00
46718;BME280;32448;44.960;-0.698;2023-03-04T05:13:46;102112.41;;;-1.67;100.00
46718;BME280;32448;44.960;-0.698;2023-03-04T05:16:15;102140.34;;;-1.60;100.00
46718;BME280;32448;44.960;-0.698;2023-03-04T05:18:43;102136.88;;;-1.60;100.00
46718;BME280;32448;44.960;-0.698;2023-03-04T05:21:11;102107.88;;;-1.79;100.00
46718;BME280;32448;44.960;-0.698;2023-03-04T05:23:40;102117.59;;;-1.75;100.00
46718;BME280;32448;44.960;-0.698;2023-03-04T05:26:09;102147.28;;;-1.59;100.00
46718;BME280;32448;44.960;-0.698;2023-03-04T05:28:37;102124.91;;;-1.80;100.00
46718;BME280;32448;44.960;-0.698;2023-03-04T05:31:04;102142.25;;;-1.67;100.00
46718;BME280;32448;44.960;-0.698;2023-03-04T05:33:32;102114.88;;;-1.87;100.00
46718;BME280;32448;44.960;-0.698;2023-03-04T05:36:01;102155.56;;;-1.71;100.00
46718;BME280;32448;44.960;-0.698;2023-03-04T05:38:28;102154.38;;;-1.75;100.00
46718;BME280;32448;44.960;-0.698;2023-03-04T05:41:00;102150.66;;;-1.78;100.00
46718;BME280;32448;44.960;-0.698;2023-03-04T05:43:28;102112.91;;;-2.00;100.00
46718;BME280;32448;44.960;-0.698;2023-03-04T05:45:55;102146.13;;;-1.91;100.00
46718;BME280;32448;44.960;-0.698;2023-03-04T05:48:22;102159.25;;;-1.78;100.00
46718;BME280;32448;44.960;-0.698;2023-03-04T05:50:58;102157.94;;;-1.83;100.00
46718;BME280;32448;44.960;-0.698;2023-03-04T05:53:27;102171.16;;;-1.78;100.00
46718;BME280;32448;44.960;-0.698;2023-03-04T05:55:54;102154.09;;;-1.88;100.00
46718;BME280;32448;44.960;-0.698;2023-03-04T05:58:22;102169.84;;;-1.84;100.00
46718;BME280;32448;44.960;-0.698;2023-03-04T06:00:49;102144.41;;;-2.01;100.00
46718;BME280;32448;44.960;-0.698;2023-03-04T06:03:18;102170.84;;;-1.92;100.00
46718;BME280;32448;44.960;-0.698;2023-03-04T06:05:46;102175.22;;;-1.91;100.00
46718;BME280;32448;44.960;-0.698;2023-03-04T06:08:14;102167.38;;;-1.92;100.00
46718;BME280;32448;44.960;-0.698;2023-03-04T06:10:41;102165.44;;;-1.95;100.00
46718;BME280;32448;44.960;-0.698;2023-03-04T06:13:09;102144.75;;;-2.06;100.00
46718;BME280;32448;44.960;-0.698;2023-03-04T06:15:38;102173.94;;;-1.86;100.00
46718;BME280;32448;44.960;-0.698;2023-03-04T06:18:06;102168.28;;;-1.92;100.00
46718;BME280;32448;44.960;-0.698;2023-03-04T06:20:34;102138.47;;;-2.10;100.00
46718;BME280;32448;44.960;-0.698;2023-03-04T06:23:02;102168.00;;;-1.95;100.00
46718;BME280;32448;44.960;-0.698;2023-03-04T06:25:31;102155.00;;;-2.06;100.00
46718;BME280;32448;44.960;-0.698;2023-03-04T06:27:58;102166.06;;;-1.97;100.00
46718;BME280;32448;44.960;-0.698;2023-03-04T06:30:26;102185.31;;;-1.92;100.00
46718;BME280;32448;44.960;-0.698;2023-03-04T06:32:53;102179.00;;;-1.96;100.00
46718;BME280;32448;44.960;-0.698;2023-03-04T06:35:20;102182.00;;;-1.91;100.00
46718;BME280;32448;44.960;-0.698;2023-03-04T06:37:48;102153.19;;;-2.07;100.00
46718;BME280;32448;44.960;-0.698;2023-03-04T06:40:22;102160.53;;;-2.02;100.00
46718;BME280;32448;44.960;-0.698;2023-03-04T06:43:06;102195.91;;;-1.79;100.00
46718;BME280;32448;44.960;-0.698;2023-03-04T06:45:44;102196.13;;;-1.76;100.00
46718;BME280;32448;44.960;-0.698;2023-03-04T06:48:31;102192.56;;;-1.78;100.00
46718;BME280;32448;44.960;-0.698;2023-03-04T06:51:08;102195.00;;;-1.79;100.00
46718;BME280;32448;44.960;-0.698;2023-03-04T06:53:38;102197.69;;;-1.78;100.00
46718;BME280;32448;44.960;-0.698;2023-03-04T06:56:12;102198.78;;;-1.85;100.00
46718;BME280;32448;44.960;-0.698;2023-03-04T06:58:43;102165.66;;;-2.02;100.00
46718;BME280;32448;44.960;-0.698;2023-03-04T07:01:17;102205.72;;;-1.84;100.00
46718;BME280;32448;44.960;-0.698;2023-03-04T07:03:44;102208.72;;;-1.79;100.00
46718;BME280;32448;44.960;-0.698;2023-03-04T07:06:14;102201.03;;;-1.79;100.00
46718;BME280;32448;44.960;-0.698;2023-03-04T07:08:43;102194.38;;;-1.77;100.00
46718;BME280;32448;44.960;-0.698;2023-03-04T07:11:12;102197.88;;;-1.66;100.00
46718;BME280;32448;44.960;-0.698;2023-03-04T07:13:40;102189.28;;;-1.67;100.00
46718;BME280;32448;44.960;-0.698;2023-03-04T07:16:13;102220.91;;;-1.48;100.00
46718;BME280;32448;44.960;-0.698;2023-03-04T07:18:41;102206.41;;;-1.47;100.00
46718;BME280;32448;44.960;-0.698;2023-03-04T07:21:09;102214.63;;;-1.41;100.00
46718;BME280;32448;44.960;-0.698;2023-03-04T07:23:40;102222.13;;;-1.34;100.00
46718;BME280;32448;44.960;-0.698;2023-03-04T07:26:08;102208.53;;;-1.33;100.00
46718;BME280;32448;44.960;-0.698;2023-03-04T07:28:36;102192.88;;;-1.36;100.00
46718;BME280;32448;44.960;-0.698;2023-03-04T07:31:29;102227.03;;;-1.17;100.00
46718;BME280;32448;44.960;-0.698;2023-03-04T07:34:03;102227.66;;;-1.19;100.00
46718;BME280;32448;44.960;-0.698;2023-03-04T07:36:31;102241.16;;;-1.12;100.00
46718;BME280;32448;44.960;-0.698;2023-03-04T07:38:59;102222.31;;;-1.12;100.00
46718;BME280;32448;44.960;-0.698;2023-03-04T07:41:27;102234.63;;;-1.08;100.00
46718;BME280;32448;44.960;-0.698;2023-03-04T07:43:56;102231.84;;;-1.01;100.00
46718;BME280;32448;44.960;-0.698;2023-03-04T07:46:24;102220.88;;;-1.08;100.00
46718;BME280;32448;44.960;-0.698;2023-03-04T07:48:56;102234.41;;;-0.91;100.00
46718;BME280;32448;44.960;-0.698;2023-03-04T07:51:25;102233.75;;;-0.88;100.00
46718;BME280;32448;44.960;-0.698;2023-03-04T07:53:56;102233.53;;;-0.81;100.00
46718;BME280;32448;44.960;-0.698;2023-03-04T07:56:27;102230.44;;;-0.77;100.00
46718;BME280;32448;44.960;-0.698;2023-03-04T07:58:59;102238.97;;;-0.68;100.00
46718;BME280;32448;44.960;-0.698;2023-03-04T08:01:30;102237.28;;;-0.67;100.00
46718;BME280;32448;44.960;-0.698;2023-03-04T08:03:58;102236.91;;;-0.62;100.00
46718;BME280;32448;44.960;-0.698;2023-03-04T08:06:27;102248.72;;;-0.44;100.00
46718;BME280;32448;44.960;-0.698;2023-03-04T08:08:59;102243.84;;;-0.41;100.00
46718;BME280;32448;44.960;-0.698;2023-03-04T08:11:28;102240.78;;;-0.37;100.00
46718;BME280;32448;44.960;-0.698;2023-03-04T08:13:56;102242.03;;;-0.31;100.00
46718;BME280;32448;44.960;-0.698;2023-03-04T08:16:24;102250.53;;;-0.22;100.00
46718;BME280;32448;44.960;-0.698;2023-03-04T08:18:54;102159.09;;;-0.61;100.00
46718;BME280;32448;44.960;-0.698;2023-03-04T08:21:24;102232.78;;;-0.09;100.00
46718;BME280;32448;44.960;-0.698;2023-03-04T08:23:53;102201.81;;;-0.21;100.00
46718;BME280;32448;44.960;-0.698;2023-03-04T08:26:28;102208.75;;;-0.10;100.00
46718;BME280;32448;44.960;-0.698;2023-03-04T08:29:02;102207.94;;;0.02;100.00
46718;BME280;32448;44.960;-0.698;2023-03-04T08:31:31;102254.41;;;0.35;100.00
46718;BME280;32448;44.960;-0.698;2023-03-04T08:34:02;102255.28;;;0.46;100.00
46718;BME280;32448;44.960;-0.698;2023-03-04T08:36:30;102233.56;;;0.42;100.00
46718;BME280;32448;44.960;-0.698;2023-03-04T08:39:02;102275.78;;;0.76;100.00
46718;BME280;32448;44.960;-0.698;2023-03-04T08:41:29;102263.84;;;0.98;100.00
46718;BME280;32448;44.960;-0.698;2023-03-04T08:43:58;102280.72;;;1.17;100.00
46718;BME280;32448;44.960;-0.698;2023-03-04T08:46:27;102274.00;;;1.40;100.00
46718;BME280;32448;44.960;-0.698;2023-03-04T08:48:55;102265.56;;;1.53;100.00
46718;BME280;32448;44.960;-0.698;2023-03-04T08:51:22;102274.22;;;1.77;100.00
46718;BME280;32448;44.960;-0.698;2023-03-04T08:53:54;102262.19;;;1.88;100.00
46718;BME280;32448;44.960;-0.698;2023-03-04T08:56:51;102287.66;;;2.88;100.00
46718;BME280;32448;44.960;-0.698;2023-03-04T08:59:19;102270.13;;;3.07;100.00
46718;BME280;32448;44.960;-0.698;2023-03-04T09:01:46;102274.69;;;3.23;100.00
46718;BME280;32448;44.960;-0.698;2023-03-04T09:04:15;102268.25;;;3.54;100.00
46718;BME280;32448;44.960;-0.698;2023-03-04T09:06:47;102270.31;;;4.10;100.00
46718;BME280;32448;44.960;-0.698;2023-03-04T09:09:15;102274.13;;;4.15;100.00
46718;BME280;32448;44.960;-0.698;2023-03-04T09:11:44;102272.22;;;4.12;100.00
46718;BME280;32448;44.960;-0.698;2023-03-04T09:14:15;102272.06;;;4.62;100.00
46718;BME280;32448;44.960;-0.698;2023-03-04T09:17:09;102262.41;;;4.72;100.00
46718;BME280;32448;44.960;-0.698;2023-03-04T09:19:39;102266.16;;;4.64;100.00
46718;BME280;32448;44.960;-0.698;2023-03-04T09:22:08;102243.16;;;4.82;100.00
46718;BME280;32448;44.960;-0.698;2023-03-04T09:24:38;102254.97;;;5.05;100.00
46718;BME280;32448;44.960;-0.698;2023-03-04T09:27:07;102246.75;;;4.84;100.00
46718;BME280;32448;44.960;-0.698;2023-03-04T09:29:38;102248.34;;;4.82;100.00
46718;BME280;32448;44.960;-0.698;2023-03-04T09:32:06;102217.59;;;4.73;100.00
46718;BME280;32448;44.960;-0.698;2023-03-04T09:34:33;102244.50;;;5.03;100.00
46718;BME280;32448;44.960;-0.698;2023-03-04T09:37:00;102234.09;;;5.44;100.00
46718;BME280;32448;44.960;-0.698;2023-03-04T09:39:29;102199.84;;;5.35;100.00
46718;BME280;32448;44.960;-0.698;2023-03-04T09:41:57;102237.81;;;5.63;100.00
46718;BME280;32448;44.960;-0.698;2023-03-04T09:44:32;102195.28;;;5.46;100.00
46718;BME280;32448;44.960;-0.698;2023-03-04T09:47:03;102234.41;;;5.64;100.00
46718;BME280;32448;44.960;-0.698;2023-03-04T09:49:32;102211.41;;;5.55;100.00
46718;BME280;32448;44.960;-0.698;2023-03-04T09:52:14;102239.00;;;5.82;100.00
46718;BME280;32448;44.960;-0.698;2023-03-04T10:00:57;102217.56;;;6.29;100.00
46718;BME280;32448;44.960;-0.698;2023-03-04T10:03:56;102233.31;;;6.63;100.00
46718;BME280;32448;44.960;-0.698;2023-03-04T10:06:27;102210.50;;;6.57;100.00
46718;BME280;32448;44.960;-0.698;2023-03-04T10:09:09;102190.66;;;6.43;100.00
46718;BME280;32448;44.960;-0.698;2023-03-04T10:14:48;102213.34;;;7.09;100.00
46718;BME280;32448;44.960;-0.698;2023-03-04T10:17:34;102222.38;;;7.00;100.00
46718;BME280;32448;44.960;-0.698;2023-03-04T10:23:30;102179.38;;;6.74;100.00
46718;BME280;32448;44.960;-0.698;2023-03-04T10:26:30;102224.81;;;7.29;100.00
46718;BME280;32448;44.960;-0.698;2023-03-04T10:29:15;102213.28;;;7.56;100.00
46718;BME280;32448;44.960;-0.698;2023-03-04T10:31:47;102187.25;;;7.40;100.00
46718;BME280;32448;44.960;-0.698;2023-03-04T10:34:17;102202.97;;;7.42;100.00
46718;BME280;32448;44.960;-0.698;2023-03-04T10:37:15;102219.56;;;7.60;100.00
46718;BME280;32448;44.960;-0.698;2023-03-04T10:40:00;102201.72;;;7.67;100.00
46718;BME280;32448;44.960;-0.698;2023-03-04T10:42:30;102195.81;;;7.88;100.00
46718;BME280;32448;44.960;-0.698;2023-03-04T10:45:22;102182.97;;;8.09;100.00
46718;BME280;32448;44.960;-0.698;2023-03-04T10:48:28;102204.03;;;8.31;100.00
46718;BME280;32448;44.960;-0.698;2023-03-04T10:51:45;102179.63;;;8.11;100.00
46718;BME280;32448;44.960;-0.698;2023-03-04T10:54:41;102172.53;;;8.43;100.00
46718;BME280;32448;44.960;-0.698;2023-03-04T10:57:43;102156.31;;;8.48;100.00
46718;BME280;32448;44.960;-0.698;2023-03-04T11:02:47;102175.78;;;8.56;100.00
46718;BME280;32448;44.960;-0.698;2023-03-04T11:05:25;102176.38;;;8.68;100.00
46718;BME280;32448;44.960;-0.698;2023-03-04T11:08:02;102154.78;;;8.71;100.00
46718;BME280;32448;44.960;-0.698;2023-03-04T11:13:37;102180.19;;;8.94;100.00
46718;BME280;32448;44.960;-0.698;2023-03-04T11:16:26;102165.00;;;8.86;100.00
46718;BME280;32448;44.960;-0.698;2023-03-04T11:18:58;102160.72;;;9.05;100.00
46718;BME280;32448;44.960;-0.698;2023-03-04T11:21:29;102160.31;;;9.16;100.00
46718;BME280;32448;44.960;-0.698;2023-03-04T11:24:04;102153.00;;;9.08;100.00
46718;BME280;32448;44.960;-0.698;2023-03-04T11:27:12;102125.13;;;9.07;100.00
46718;BME280;32448;44.960;-0.698;2023-03-04T11:30:23;102152.94;;;9.45;100.00
46718;BME280;32448;44.960;-0.698;2023-03-04T11:32:46;102130.13;;;9.41;100.00
46718;BME280;32448;44.960;-0.698;2023-03-04T11:35:26;102149.38;;;9.64;100.00
46718;BME280;32448;44.960;-0.698;2023-03-04T11:40:51;102141.22;;;9.57;100.00
46718;BME280;32448;44.960;-0.698;2023-03-04T11:43:34;102147.97;;;9.52;100.00
46718;BME280;32448;44.960;-0.698;2023-03-04T11:49:52;102146.41;;;9.76;100.00
46718;BME280;32448;44.960;-0.698;2023-03-04T11:52:50;102133.16;;;9.71;100.00
46718;BME280;32448;44.960;-0.698;2023-03-04T12:09:56;102126.75;;;10.26;100.00
46718;BME280;32448;44.960;-0.698;2023-03-04T12:13:08;102134.16;;;10.37;100.00
46718;BME280;32448;44.960;-0.698;2023-03-04T12:18:39;102115.91;;;10.39;100.00
46718;BME280;32448;44.960;-0.698;2023-03-04T12:33:38;102096.25;;;10.71;100.00
46718;BME280;32448;44.960;-0.698;2023-03-04T12:44:24;102076.91;;;10.89;100.00
46718;BME280;32448;44.960;-0.698;2023-03-04T12:52:41;102043.16;;;10.97;100.00
46718;BME280;32448;44.960;-0.698;2023-03-04T12:55:17;102044.59;;;11.13;100.00
46718;BME280;32448;44.960;-0.698;2023-03-04T12:57:47;102026.41;;;11.17;100.00
46718;BME280;32448;44.960;-0.698;2023-03-04T13:00:33;102044.56;;;11.37;100.00
46718;BME280;32448;44.960;-0.698;2023-03-04T13:08:52;102034.63;;;11.26;100.00
46718;BME280;32448;44.960;-0.698;2023-03-04T13:14:03;102024.56;;;11.13;100.00
46718;BME280;32448;44.960;-0.698;2023-03-04T13:16:41;102023.91;;;11.20;100.00
46718;BME280;32448;44.960;-0.698;2023-03-04T13:22:58;101993.16;;;11.13;100.00
46718;BME280;32448;44.960;-0.698;2023-03-04T13:28:36;101978.84;;;11.29;100.00
46718;BME280;32448;44.960;-0.698;2023-03-04T13:36:51;101998.69;;;11.49;100.00
46718;BME280;32448;44.960;-0.698;2023-03-04T13:39:24;102000.97;;;11.39;99.50
46718;BME280;32448;44.960;-0.698;2023-03-04T13:41:54;101972.88;;;11.33;100.00
46718;BME280;32448;44.960;-0.698;2023-03-04T13:44:55;101996.94;;;11.48;100.00
46718;BME280;32448;44.960;-0.698;2023-03-04T13:47:42;101958.25;;;11.40;94.89
46718;BME280;32448;44.960;-0.698;2023-03-04T13:50:31;101992.41;;;11.70;90.55
46718;BME280;32448;44.960;-0.698;2023-03-04T13:53:42;101972.38;;;11.45;85.02
46718;BME280;32448;44.960;-0.698;2023-03-04T13:59:10;101981.53;;;11.84;85.75
46718;BME280;32448;44.960;-0.698;2023-03-04T14:07:00;101975.84;;;11.71;100.00
46718;BME280;32448;44.960;-0.698;2023-03-04T14:09:31;101973.56;;;11.54;98.53
46718;BME280;32448;44.960;-0.698;2023-03-04T14:12:14;101939.84;;;11.37;94.62
46718;BME280;32448;44.960;-0.698;2023-03-04T14:14:47;101966.44;;;11.50;100.00
46718;BME280;32448;44.960;-0.698;2023-03-04T14:17:35;101935.34;;;11.32;99.66
46718;BME280;32448;44.960;-0.698;2023-03-04T14:20:04;101980.44;;;11.51;100.00
46718;BME280;32448;44.960;-0.698;2023-03-04T14:22:44;101979.31;;;11.43;100.00
46718;BME280;32448;44.960;-0.698;2023-03-04T14:27:45;101979.13;;;11.38;96.24
46718;BME280;32448;44.960;-0.698;2023-03-04T14:30:26;101972.81;;;11.31;100.00
46718;BME280;32448;44.960;-0.698;2023-03-04T14:33:14;101987.97;;;11.15;100.00
46718;BME280;32448;44.960;-0.698;2023-03-04T14:35:58;101972.75;;;11.03;100.00
46718;BME280;32448;44.960;-0.698;2023-03-04T14:38:33;101986.81;;;11.07;100.00
46718;BME280;32448;44.960;-0.698;2023-03-04T14:41:09;101958.50;;;10.95;100.00
46718;BME280;32448;44.960;-0.698;2023-03-04T14:44:02;101978.38;;;10.90;100.00
46718;BME280;32448;44.960;-0.698;2023-03-04T14:46:37;101974.66;;;10.83;100.00